Nippon Maru — JNNU — position and weather

sailwx.info

Track history (hours):
 
Tides and Currents Weather Stations Pressure Air Temp Water Temp Dewpoint Dewpoint Depression Visibility Wind Speed Wind Dir Waves Ship Positions

Nippon Maru

Last reported at 2019-Aug-26 14:24 UTC. Time now 2019-Sep-21 00:38 UTC.
Position N 35°02' E 139°42'.
Warning: this ship's position is 25 days out of date.

Length 167 m; draft 6.5 m.

Type: Passenger vessel. MMSI: 431302000.

Date/timePositionNaut miles runAvg speedWind from/ knotsBaromVisibWave heightAir tempDewpointWater temp
2019-Aug-26 14:24N 35°02' E 139°42'616.4
2019-Aug-26 14:00N 35°09' E 139°45'612.7
2019-Aug-26 13:30N 35°15' E 139°46'713.4
2019-Aug-26 13:00N 35°21' E 139°42'612.2
2019-Aug-26 12:30N 35°27' E 139°42'2 4.3
2019-Aug-26 11:59N 35°27' E 139°39'0 0.0
2019-Aug-26 11:29N 35°27' E 139°39'0 0.0
2019-Aug-26 10:59N 35°27' E 139°39'0 0.0
2019-Aug-26 10:29N 35°27' E 139°39'0 0.0
2019-Aug-26 09:59N 35°27' E 139°39'0 0.0
2019-Aug-26 09:29N 35°27' E 139°39'0 0.0
2019-Aug-26 08:59N 35°27' E 139°39'0 0.0
2019-Aug-26 08:29N 35°27' E 139°39'0 0.0
2019-Aug-26 07:59N 35°27' E 139°39'0 0.0
2019-Aug-26 07:29N 35°27' E 139°39'0 0.8
2019-Aug-26 07:01N 35°27' E 139°39'3 6.9
2019-Aug-26 06:30N 35°25' E 139°42'4 7.4
2019-Aug-26 06:00N 35°22' E 139°43'611.9
2019-Aug-26 05:30N 35°16' E 139°46'611.8
2019-Aug-26 05:00N 35°11' E 139°47'813.5
2019-Aug-26 04:24N 35°03' E 139°42'24113.9
2019-Aug-25 11:05N 34°06' E 134°58'117.4
2019-Aug-25 11:00N 34°07' E 134°58'814.5
2019-Aug-25 10:29N 34°15' E 134°58'816.6
2019-Aug-25 10:00N 34°22' E 135°00'918.2
2019-Aug-25 09:30N 34°31' E 135°04'5 9.0
2019-Aug-25 08:58N 34°36' E 135°03'612.5
2019-Aug-25 08:31N 34°36' E 134°56'816.7
2019-Aug-25 08:01N 34°32' E 134°47'917.5
2019-Aug-25 07:31N 34°29' E 134°38'918.2
2019-Aug-25 07:00N 34°25' E 134°27'918.3
2019-Aug-25 06:31N 34°24' E 134°16'39 0.8
2019-Aug-23 05:44N 34°02' E 134°55'817.8
2019-Aug-23 05:18N 34°10' E 134°57'415.2
2019-Aug-23 05:01N 34°14' E 134°58'713.0
2019-Aug-23 04:30N 34°20' E 134°59'817.0
2019-Aug-23 04:00N 34°28' E 135°04'917.1
2019-Aug-23 03:30N 34°35' E 135°09'611.5
2019-Aug-23 03:00N 34°41' E 135°11'0 0.0
2019-Aug-23 02:27N 34°41' E 135°11'0 0.0
2019-Aug-23 01:57N 34°41' E 135°11'0 0.0
2019-Aug-23 01:27N 34°41' E 135°11'0 0.0
2019-Aug-23 01:00N 34°41' E 135°11'0 0.0
2019-Aug-23 00:21N 34°41' E 135°11'0 0.0
2019-Aug-22 23:57N 34°41' E 135°11'0 0.0
2019-Aug-22 23:27N 34°41' E 135°11'0 0.0
2019-Aug-22 23:00N 34°41' E 135°11'0 0.0
2019-Aug-22 22:21N 34°41' E 135°11'0 0.0
2019-Aug-22 21:57N 34°41' E 135°11'0 0.0
2019-Aug-22 21:21N 34°41' E 135°11'0 0.0
2019-Aug-22 20:51N 34°41' E 135°11'0 0.0
2019-Aug-22 20:27N 34°41' E 135°11'0 0.0
2019-Aug-22 19:57N 34°41' E 135°11'0 0.0
2019-Aug-22 19:27N 34°41' E 135°11'0 0.0
2019-Aug-22 18:57N 34°41' E 135°11'0 0.0
2019-Aug-22 18:27N 34°41' E 135°11'0 0.0
2019-Aug-22 17:57N 34°41' E 135°11'0 0.0
2019-Aug-22 17:27N 34°41' E 135°11'0 0.0
2019-Aug-22 16:57N 34°41' E 135°11'0 0.0
2019-Aug-22 16:27N 34°41' E 135°11'0 0.0
2019-Aug-22 15:57N 34°41' E 135°11'0 0.0
2019-Aug-22 15:15N 34°41' E 135°11'0 0.0
2019-Aug-22 14:57N 34°41' E 135°11'0 0.0
2019-Aug-22 14:27N 34°41' E 135°11'0 0.0
2019-Aug-22 13:57N 34°41' E 135°11'0 0.0
2019-Aug-22 13:27N 34°41' E 135°11'0 0.0
2019-Aug-22 12:57N 34°41' E 135°11'0 0.0
2019-Aug-22 12:27N 34°41' E 135°11'0 1.0
2019-Aug-22 12:00N 34°40' E 135°11'4 8.3
2019-Aug-22 11:30N 34°36' E 135°10'4 8.6
2019-Aug-22 11:00N 34°35' E 135°06'5 9.5
2019-Aug-22 10:30N 34°37' E 135°01'713.9
2019-Aug-22 10:00N 34°38' E 134°52'815.9
2019-Aug-22 09:30N 34°42' E 134°44'612.0
2019-Aug-22 09:00N 34°47' E 134°39'0 0.0
2019-Aug-22 08:30N 34°47' E 134°39'0 0.0
2019-Aug-22 08:00N 34°47' E 134°39'0 0.1
2019-Aug-22 07:30N 34°47' E 134°40'3 5.7
2019-Aug-22 07:00N 34°44' E 134°39'810.7
2019-Aug-22 06:14N 34°36' E 134°36'313.0
2019-Aug-22 06:00N 34°34' E 134°34'613.0
2019-Aug-22 05:31N 34°29' E 134°28'612.0
2019-Aug-22 05:00N 34°25' E 134°24'713.7
2019-Aug-22 04:29N 34°24' E 134°15'2 0.0
2019-Aug-20 05:30N 34°25' E 134°13'13 9.7
2019-Aug-20 04:10N 34°28' E 134°28'211.0
2019-Aug-20 04:00N 34°29' E 134°29'611.1
2019-Aug-20 03:30N 34°33' E 134°33'611.0
2019-Aug-20 03:00N 34°38' E 134°38'510.2
2019-Aug-20 02:30N 34°43' E 134°39'4 8.3
2019-Aug-20 02:00N 34°47' E 134°39'0 0.0
2019-Aug-20 00:27N 34°47' E 134°39'0 0.0
2019-Aug-19 23:45N 34°47' E 134°39'0 0.0
2019-Aug-19 23:27N 34°47' E 134°39'0 0.0
2019-Aug-19 23:00N 34°47' E 134°39'0 0.1
2019-Aug-19 22:30N 34°47' E 134°40'2 4.4
2019-Aug-19 22:00N 34°45' E 134°39'5 9.1
2019-Aug-19 21:30N 34°40' E 134°40'714.4
2019-Aug-19 21:01N 34°34' E 134°44'714.6
2019-Aug-19 20:30N 34°35' E 134°53'711.6
2019-Aug-19 19:56N 34°38' E 135°00'4 8.3
2019-Aug-19 19:30N 34°36' E 135°04'5 9.5
2019-Aug-19 19:00N 34°32' E 135°08'2 3.6
2019-Aug-19 18:30N 34°31' E 135°08'5 9.9
2019-Aug-19 18:00N 34°26' E 135°06'815.7
2019-Aug-19 17:30N 34°20' E 135°01'816.3
2019-Aug-19 17:00N 34°12' E 134°59'713.7
2019-Aug-19 16:30N 34°05' E 134°59'19 0.6
2019-Aug-18 07:50N 34°03' E 134°36'0 0.0
2019-Aug-17 23:34N 34°03' E 134°36'0 1.7
2019-Aug-17 23:30N 34°03' E 134°36'5 6.9
2019-Aug-17 22:44N 34°01' E 134°42'2 8.0
2019-Aug-17 22:26N 33°60' E 134°44'3 6.6
2019-Aug-17 21:58N 33°58' E 134°48'  
Track history (hours):
 
Tides and Currents Weather Stations Pressure Air Temp Water Temp Dewpoint Dewpoint Depression Visibility Wind Speed Wind Dir Waves Ship Positions

Nippon Maru

Last reported at 2019-Aug-26 14:24 UTC. Time now 2019-Sep-21 00:38 UTC.
Position N 35°02' E 139°42'.
Warning: this ship's position is 25 days out of date.

Length 167 m; draft 6.5 m.

Type: Passenger vessel. MMSI: 431302000.

Date/timePositionNaut miles runAvg speedWind from/ knotsBaromVisibWave heightAir tempDewpointWater temp
2019-Aug-26 14:24N 35°02' E 139°42'616.4
2019-Aug-26 14:00N 35°09' E 139°45'612.7
2019-Aug-26 13:30N 35°15' E 139°46'713.4
2019-Aug-26 13:00N 35°21' E 139°42'612.2
2019-Aug-26 12:30N 35°27' E 139°42'2 4.3
2019-Aug-26 11:59N 35°27' E 139°39'0 0.0
2019-Aug-26 11:29N 35°27' E 139°39'0 0.0
2019-Aug-26 10:59N 35°27' E 139°39'0 0.0
2019-Aug-26 10:29N 35°27' E 139°39'0 0.0
2019-Aug-26 09:59N 35°27' E 139°39'0 0.0
2019-Aug-26 09:29N 35°27' E 139°39'0 0.0
2019-Aug-26 08:59N 35°27' E 139°39'0 0.0
2019-Aug-26 08:29N 35°27' E 139°39'0 0.0
2019-Aug-26 07:59N 35°27' E 139°39'0 0.0
2019-Aug-26 07:29N 35°27' E 139°39'0 0.8
2019-Aug-26 07:01N 35°27' E 139°39'3 6.9
2019-Aug-26 06:30N 35°25' E 139°42'4 7.4
2019-Aug-26 06:00N 35°22' E 139°43'611.9
2019-Aug-26 05:30N 35°16' E 139°46'611.8
2019-Aug-26 05:00N 35°11' E 139°47'813.5
2019-Aug-26 04:24N 35°03' E 139°42'24113.9
2019-Aug-25 11:05N 34°06' E 134°58'117.4
2019-Aug-25 11:00N 34°07' E 134°58'814.5
2019-Aug-25 10:29N 34°15' E 134°58'816.6
2019-Aug-25 10:00N 34°22' E 135°00'918.2
2019-Aug-25 09:30N 34°31' E 135°04'5 9.0
2019-Aug-25 08:58N 34°36' E 135°03'612.5
2019-Aug-25 08:31N 34°36' E 134°56'816.7
2019-Aug-25 08:01N 34°32' E 134°47'917.5
2019-Aug-25 07:31N 34°29' E 134°38'918.2
2019-Aug-25 07:00N 34°25' E 134°27'918.3
2019-Aug-25 06:31N 34°24' E 134°16'39 0.8
2019-Aug-23 05:44N 34°02' E 134°55'817.8
2019-Aug-23 05:18N 34°10' E 134°57'415.2
2019-Aug-23 05:01N 34°14' E 134°58'713.0
2019-Aug-23 04:30N 34°20' E 134°59'817.0
2019-Aug-23 04:00N 34°28' E 135°04'917.1
2019-Aug-23 03:30N 34°35' E 135°09'611.5
2019-Aug-23 03:00N 34°41' E 135°11'0 0.0
2019-Aug-23 02:27N 34°41' E 135°11'0 0.0
2019-Aug-23 01:57N 34°41' E 135°11'0 0.0
2019-Aug-23 01:27N 34°41' E 135°11'0 0.0
2019-Aug-23 01:00N 34°41' E 135°11'0 0.0
2019-Aug-23 00:21N 34°41' E 135°11'0 0.0
2019-Aug-22 23:57N 34°41' E 135°11'0 0.0
2019-Aug-22 23:27N 34°41' E 135°11'0 0.0
2019-Aug-22 23:00N 34°41' E 135°11'0 0.0
2019-Aug-22 22:21N 34°41' E 135°11'0 0.0
2019-Aug-22 21:57N 34°41' E 135°11'0 0.0
2019-Aug-22 21:21N 34°41' E 135°11'0 0.0
2019-Aug-22 20:51N 34°41' E 135°11'0 0.0
2019-Aug-22 20:27N 34°41' E 135°11'0 0.0
2019-Aug-22 19:57N 34°41' E 135°11'0 0.0
2019-Aug-22 19:27N 34°41' E 135°11'0 0.0
2019-Aug-22 18:57N 34°41' E 135°11'0 0.0
2019-Aug-22 18:27N 34°41' E 135°11'0 0.0
2019-Aug-22 17:57N 34°41' E 135°11'0 0.0
2019-Aug-22 17:27N 34°41' E 135°11'0 0.0
2019-Aug-22 16:57N 34°41' E 135°11'0 0.0
2019-Aug-22 16:27N 34°41' E 135°11'0 0.0
2019-Aug-22 15:57N 34°41' E 135°11'0 0.0
2019-Aug-22 15:15N 34°41' E 135°11'0 0.0
2019-Aug-22 14:57N 34°41' E 135°11'0 0.0
2019-Aug-22 14:27N 34°41' E 135°11'0 0.0
2019-Aug-22 13:57N 34°41' E 135°11'0 0.0
2019-Aug-22 13:27N 34°41' E 135°11'0 0.0
2019-Aug-22 12:57N 34°41' E 135°11'0 0.0
2019-Aug-22 12:27N 34°41' E 135°11'0 1.0
2019-Aug-22 12:00N 34°40' E 135°11'4 8.3
2019-Aug-22 11:30N 34°36' E 135°10'4 8.6
2019-Aug-22 11:00N 34°35' E 135°06'5 9.5
2019-Aug-22 10:30N 34°37' E 135°01'713.9
2019-Aug-22 10:00N 34°38' E 134°52'815.9
2019-Aug-22 09:30N 34°42' E 134°44'612.0
2019-Aug-22 09:00N 34°47' E 134°39'0 0.0
2019-Aug-22 08:30N 34°47' E 134°39'0 0.0
2019-Aug-22 08:00N 34°47' E 134°39'0 0.1
2019-Aug-22 07:30N 34°47' E 134°40'3 5.7
2019-Aug-22 07:00N 34°44' E 134°39'810.7
2019-Aug-22 06:14N 34°36' E 134°36'313.0
2019-Aug-22 06:00N 34°34' E 134°34'613.0
2019-Aug-22 05:31N 34°29' E 134°28'612.0
2019-Aug-22 05:00N 34°25' E 134°24'713.7
2019-Aug-22 04:29N 34°24' E 134°15'2 0.0
2019-Aug-20 05:30N 34°25' E 134°13'13 9.7
2019-Aug-20 04:10N 34°28' E 134°28'211.0
2019-Aug-20 04:00N 34°29' E 134°29'611.1
2019-Aug-20 03:30N 34°33' E 134°33'611.0
2019-Aug-20 03:00N 34°38' E 134°38'510.2
2019-Aug-20 02:30N 34°43' E 134°39'4 8.3
2019-Aug-20 02:00N 34°47' E 134°39'0 0.0
2019-Aug-20 00:27N 34°47' E 134°39'0 0.0
2019-Aug-19 23:45N 34°47' E 134°39'0 0.0
2019-Aug-19 23:27N 34°47' E 134°39'0 0.0
2019-Aug-19 23:00N 34°47' E 134°39'0 0.1
2019-Aug-19 22:30N 34°47' E 134°40'2 4.4
2019-Aug-19 22:00N 34°45' E 134°39'5 9.1
2019-Aug-19 21:30N 34°40' E 134°40'714.4
2019-Aug-19 21:01N 34°34' E 134°44'714.6
2019-Aug-19 20:30N 34°35' E 134°53'711.6
2019-Aug-19 19:56N 34°38' E 135°00'4 8.3
2019-Aug-19 19:30N 34°36' E 135°04'5 9.5
2019-Aug-19 19:00N 34°32' E 135°08'2 3.6
2019-Aug-19 18:30N 34°31' E 135°08'5 9.9
2019-Aug-19 18:00N 34°26' E 135°06'815.7
2019-Aug-19 17:30N 34°20' E 135°01'816.3
2019-Aug-19 17:00N 34°12' E 134°59'713.7
2019-Aug-19 16:30N 34°05' E 134°59'19 0.6
2019-Aug-18 07:50N 34°03' E 134°36'0 0.0
2019-Aug-17 23:34N 34°03' E 134°36'0 1.7
2019-Aug-17 23:30N 34°03' E 134°36'5 6.9
2019-Aug-17 22:44N 34°01' E 134°42'2 8.0
2019-Aug-17 22:26N 33°60' E 134°44'3 6.6
2019-Aug-17 21:58N 33°58' E 134°48'  

Dump ship's entire track history